Time;durP1;ratioP1;P1;durP2;ratioP2;P2;SDS_P1;SDS_P2;PMS_P1;PMS_P2;Temp;Humidity;BMP_temperature;BMP_pressure;BME280_temperature;BME280_humidity;BME280_pressure;Samples;Min_cycle;Max_cycle;Signal;HPM_P1;HPM_P2
2022/03/22 00:01:51;;;;;;;;;;;5.40;99.90;;;;;;5099191;28;19918;-42
2022/03/22 00:04:19;;;;;;;;;;;5.40;99.90;;;;;;5095327;28;20276;-44
2022/03/22 00:06:45;;;;;;;;;;;5.40;99.90;;;;;;5096297;28;19955;-47
2022/03/22 00:09:10;;;;;;;;;;;5.40;99.90;;;;;;5115664;28;19908;-42
2022/03/22 00:11:36;;;;;;;;;;;5.30;99.90;;;;;;5115742;28;19927;-43
2022/03/22 00:14:02;;;;;;;;;;;5.30;99.90;;;;;;5115442;28;19916;-44
2022/03/22 00:16:28;;;;;;;;;;;5.30;99.90;;;;;;5114645;28;19938;-43
2022/03/22 00:18:53;;;;;;;;;;;5.30;99.90;;;;;;5111320;28;19912;-44
2022/03/22 00:21:19;;;;;;;;;;;5.20;99.90;;;;;;5114361;28;20235;-47
2022/03/22 00:23:48;;;;;;;;;;;5.20;99.90;;;;;;5115253;28;19970;-43
2022/03/22 00:26:14;;;;;;;;;;;5.10;99.90;;;;;;5115444;28;19907;-43
2022/03/22 00:28:39;;;;;;;;;;;5.00;99.90;;;;;;5099489;28;19912;-43
2022/03/22 00:31:07;;;;;;;;;;;4.90;99.90;;;;;;5094702;28;20006;-44
2022/03/22 00:33:32;;;;;;;;;;;4.90;99.90;;;;;;5099839;28;19969;-46
2022/03/22 00:35:59;;;;;;;;;;;4.80;99.90;;;;;;5094744;28;19911;-43
2022/03/22 00:38:26;;;;;;;;;;;4.80;99.90;;;;;;5106057;28;19912;-44
2022/03/22 00:40:52;;;;;;;;;;;4.70;99.90;;;;;;5114958;28;20475;-44
2022/03/22 00:43:17;;;;;;;;;;;4.70;99.90;;;;;;5115335;28;19943;-42
2022/03/22 00:45:43;;;;;;;;;;;4.60;99.90;;;;;;5114910;28;19915;-44
2022/03/22 00:48:12;;;;;;;;;;;4.70;99.90;;;;;;5108490;28;20342;-44
2022/03/22 00:50:40;;;;;;;;;;;4.60;99.90;;;;;;5114954;28;19915;-43
2022/03/22 00:53:07;;;;;;;;;;;4.60;99.90;;;;;;5115131;28;19959;-42
2022/03/22 00:55:33;;;;;;;;;;;4.60;99.90;;;;;;5115232;28;20068;-42
2022/03/22 00:57:59;;;;;;;;;;;4.50;99.90;;;;;;5108265;28;20362;-43
2022/03/22 01:00:26;;;;;;;;;;;4.50;99.90;;;;;;5094394;28;19939;-42
2022/03/22 01:02:52;;;;;;;;;;;4.40;99.90;;;;;;5100374;28;20331;-43
2022/03/22 01:05:19;;;;;;;;;;;4.40;99.90;;;;;;5095240;28;19912;-42
2022/03/22 01:07:46;;;;;;;;;;;4.40;99.90;;;;;;5095255;28;19915;-43
2022/03/22 01:10:12;;;;;;;;;;;4.30;99.90;;;;;;5114909;28;19911;-44
2022/03/22 01:12:38;;;;;;;;;;;4.30;99.90;;;;;;5114806;28;20334;-43
2022/03/22 01:15:05;;;;;;;;;;;4.20;99.90;;;;;;5114797;28;19964;-45
2022/03/22 01:17:31;;;;;;;;;;;4.20;99.90;;;;;;5113400;28;19909;-43
2022/03/22 01:20:00;;;;;;;;;;;4.10;99.90;;;;;;5107854;28;19912;-42
2022/03/22 01:22:25;;;;;;;;;;;4.10;99.90;;;;;;5114380;28;19908;-45
2022/03/22 01:24:52;;;;;;;;;;;4.10;99.90;;;;;;5112067;28;19922;-44
2022/03/22 01:27:20;;;;;;;;;;;4.00;99.90;;;;;;5094311;28;19908;-43
2022/03/22 01:29:45;;;;;;;;;;;3.90;99.90;;;;;;5094085;28;19920;-42
2022/03/22 01:32:11;;;;;;;;;;;3.90;99.90;;;;;;5094311;28;20274;-43
2022/03/22 01:34:36;;;;;;;;;;;3.90;99.90;;;;;;5102035;28;19920;-44
2022/03/22 01:37:02;;;;;;;;;;;3.80;99.90;;;;;;5113396;28;20008;-42
2022/03/22 01:39:28;;;;;;;;;;;3.90;99.90;;;;;;5113769;28;20371;-42
2022/03/22 01:41:53;;;;;;;;;;;3.80;99.90;;;;;;5114512;28;19919;-42
2022/03/22 01:44:19;;;;;;;;;;;3.80;99.90;;;;;;5102855;28;19915;-43
2022/03/22 01:46:45;;;;;;;;;;;3.80;99.90;;;;;;5092779;28;19912;-43
2022/03/22 01:49:11;;;;;;;;;;;3.80;99.90;;;;;;5104281;28;20372;-43
2022/03/22 01:51:37;;;;;;;;;;;3.70;99.90;;;;;;5112958;28;19916;-44
2022/03/22 01:54:03;;;;;;;;;;;3.70;99.90;;;;;;5107901;28;19999;-43
2022/03/22 01:56:28;;;;;;;;;;;3.70;99.90;;;;;;5113121;28;20370;-42
2022/03/22 01:58:55;;;;;;;;;;;3.70;99.90;;;;;;5114009;28;19908;-42
2022/03/22 02:06:54;;;;;;;;;;;3.70;99.90;;;;;;5093463;28;19977;-43
2022/03/22 02:09:20;;;;;;;;;;;3.70;99.90;;;;;;5093368;28;19908;-43
2022/03/22 02:11:45;;;;;;;;;;;3.70;99.90;;;;;;5093270;28;19912;-46
2022/03/22 02:14:11;;;;;;;;;;;3.80;99.90;;;;;;5099162;28;19915;-43
2022/03/22 02:16:36;;;;;;;;;;;3.70;99.90;;;;;;5113941;28;19912;-44
2022/03/22 02:19:03;;;;;;;;;;;3.70;99.90;;;;;;5110783;28;20350;-44
2022/03/22 02:21:30;;;;;;;;;;;3.70;99.90;;;;;;5113852;28;20349;-43
2022/03/22 02:23:56;;;;;;;;;;;3.60;99.90;;;;;;5112587;28;19998;-44
2022/03/22 02:26:23;;;;;;;;;;;3.70;99.90;;;;;;5093435;28;19959;-43
2022/03/22 02:28:53;;;;;;;;;;;3.70;99.90;;;;;;5093487;28;20380;-45
2022/03/22 02:31:25;;;;;;;;;;;3.60;99.90;;;;;;5093498;28;19924;-42
2022/03/22 02:33:51;;;;;;;;;;;3.60;99.90;;;;;;5094608;28;20366;-42
2022/03/22 02:36:17;;;;;;;;;;;3.60;99.90;;;;;;5094278;28;20050;-43
2022/03/22 02:38:42;;;;;;;;;;;3.60;99.90;;;;;;5093543;28;19931;-45
2022/03/22 02:41:13;;;;;;;;;;;3.60;99.90;;;;;;5093723;28;20236;-45
2022/03/22 02:43:39;;;;;;;;;;;3.40;99.90;;;;;;5093370;28;19916;-43
2022/03/22 02:46:04;;;;;;;;;;;3.40;99.90;;;;;;5110725;28;19912;-45
2022/03/22 02:48:30;;;;;;;;;;;3.40;99.90;;;;;;5113817;28;20399;-44
2022/03/22 02:50:56;;;;;;;;;;;3.40;99.90;;;;;;5110660;28;19912;-43
2022/03/22 02:53:21;;;;;;;;;;;3.50;99.90;;;;;;5117255;28;19912;-42
2022/03/22 02:55:47;;;;;;;;;;;3.50;99.90;;;;;;5104804;28;19912;-44
2022/03/22 02:58:12;;;;;;;;;;;3.50;99.90;;;;;;5096781;28;19923;-43
2022/03/22 03:00:38;;;;;;;;;;;3.50;99.90;;;;;;5097955;28;19919;-44
2022/03/22 03:03:04;;;;;;;;;;;3.50;99.90;;;;;;5096684;28;19915;-42
2022/03/22 03:05:30;;;;;;;;;;;3.40;99.90;;;;;;5100699;28;20009;-42
2022/03/22 03:07:56;;;;;;;;;;;3.40;99.90;;;;;;5096767;28;19953;-43
2022/03/22 03:10:21;;;;;;;;;;;3.30;99.90;;;;;;5096530;28;19912;-42
2022/03/22 03:12:47;;;;;;;;;;;3.40;99.90;;;;;;5096710;28;20380;-42
2022/03/22 03:15:12;;;;;;;;;;;3.40;99.90;;;;;;5102222;28;19972;-42
2022/03/22 03:17:38;;;;;;;;;;;3.40;99.90;;;;;;5116971;28;19908;-41
2022/03/22 03:20:04;;;;;;;;;;;3.40;99.90;;;;;;5110954;28;19912;-47
2022/03/22 03:22:30;;;;;;;;;;;3.40;99.90;;;;;;5116878;28;19907;-46
2022/03/22 03:24:56;;;;;;;;;;;3.40;99.90;;;;;;5115827;28;19953;-44
2022/03/22 03:27:22;;;;;;;;;;;3.40;99.90;;;;;;5096576;28;19981;-44
2022/03/22 03:29:47;;;;;;;;;;;3.40;99.90;;;;;;5096146;28;19971;-44
2022/03/22 03:32:13;;;;;;;;;;;3.40;99.90;;;;;;5096064;28;19955;-44
2022/03/22 03:34:39;;;;;;;;;;;3.30;99.90;;;;;;5096277;28;20373;-44
2022/03/22 03:37:04;;;;;;;;;;;3.20;99.90;;;;;;5101564;28;19912;-43
2022/03/22 03:39:30;;;;;;;;;;;3.30;99.90;;;;;;5095917;28;19909;-44
2022/03/22 03:41:59;;;;;;;;;;;3.20;99.90;;;;;;5096070;28;20003;-44
2022/03/22 03:47:11;;;;;;;;;;;3.20;99.90;;;;;;5113781;28;19919;-45
2022/03/22 03:49:54;;;;;;;;;;;3.10;99.90;;;;;;5116061;28;19908;-44
2022/03/22 03:52:19;;;;;;;;;;;3.00;99.90;;;;;;5108591;28;19919;-43
2022/03/22 03:54:45;;;;;;;;;;;3.00;99.90;;;;;;5115029;28;19915;-45
2022/03/22 03:57:10;;;;;;;;;;;2.90;99.90;;;;;;5100116;28;20275;-43
2022/03/22 03:59:37;;;;;;;;;;;2.90;99.90;;;;;;5095803;28;19916;-43
2022/03/22 04:02:03;;;;;;;;;;;2.80;99.90;;;;;;5095192;28;19908;-44
2022/03/22 04:04:28;;;;;;;;;;;2.80;99.90;;;;;;5095466;28;19912;-42
2022/03/22 04:06:54;;;;;;;;;;;2.70;99.90;;;;;;5108164;28;20255;-43
2022/03/22 04:09:19;;;;;;;;;;;2.70;99.90;;;;;;5115694;28;19908;-43
2022/03/22 04:11:45;;;;;;;;;;;2.80;99.90;;;;;;5115616;28;19920;-42
2022/03/22 04:14:11;;;;;;;;;;;2.70;99.90;;;;;;5115876;28;20302;-43
2022/03/22 04:16:37;;;;;;;;;;;2.70;99.90;;;;;;5106150;28;19999;-43
2022/03/22 04:19:04;;;;;;;;;;;2.70;99.90;;;;;;5095482;28;20003;-46
2022/03/22 04:21:29;;;;;;;;;;;2.70;99.90;;;;;;5101223;28;20421;-45
2022/03/22 04:23:55;;;;;;;;;;;2.60;99.90;;;;;;5102846;28;19943;-44
2022/03/22 04:26:20;;;;;;;;;;;2.50;99.90;;;;;;5115331;28;20250;-43
2022/03/22 04:34:14;;;;;;;;;;;2.50;99.90;;;;;;5100397;28;19957;-46
2022/03/22 04:36:39;;;;;;;;;;;2.50;99.90;;;;;;5106331;28;19924;-46
2022/03/22 04:39:05;;;;;;;;;;;2.50;99.90;;;;;;5096313;28;19916;-42
2022/03/22 04:41:30;;;;;;;;;;;2.50;99.90;;;;;;5092169;28;19908;-44
2022/03/22 04:43:56;;;;;;;;;;;2.50;99.90;;;;;;5092808;28;19930;-44
2022/03/22 04:46:22;;;;;;;;;;;2.50;99.90;;;;;;5094836;28;19920;-42
2022/03/22 04:48:48;;;;;;;;;;;2.40;99.90;;;;;;5093183;28;20251;-43
2022/03/22 04:56:48;;;;;;;;;;;2.40;99.90;;;;;;5093201;28;19923;-43
2022/03/22 04:59:24;;;;;;;;;;;2.30;99.90;;;;;;5093373;28;19908;-43
2022/03/22 05:01:51;;;;;;;;;;;2.40;99.90;;;;;;5097027;28;19924;-43
2022/03/22 05:04:17;;;;;;;;;;;2.40;99.90;;;;;;5092828;28;20360;-43
2022/03/22 05:06:42;;;;;;;;;;;2.40;99.90;;;;;;5093415;28;20007;-43
2022/03/22 05:09:08;;;;;;;;;;;2.40;99.90;;;;;;5092163;28;19981;-44
2022/03/22 05:11:34;;;;;;;;;;;2.40;99.90;;;;;;5092457;28;19970;-42
2022/03/22 05:14:00;;;;;;;;;;;2.40;99.90;;;;;;5092270;28;20327;-42
2022/03/22 05:16:26;;;;;;;;;;;2.40;99.90;;;;;;5094085;28;19911;-42
2022/03/22 05:18:52;;;;;;;;;;;2.30;99.90;;;;;;5094779;28;20053;-43
2022/03/22 05:21:18;;;;;;;;;;;2.30;99.90;;;;;;5100839;28;19962;-44
2022/03/22 05:23:46;;;;;;;;;;;2.30;99.90;;;;;;5088894;28;19912;-43
2022/03/22 05:26:13;;;;;;;;;;;2.20;99.90;;;;;;5095016;28;20378;-42
2022/03/22 05:28:39;;;;;;;;;;;2.20;99.90;;;;;;5104570;28;19916;-45
2022/03/22 05:31:05;;;;;;;;;;;2.30;99.90;;;;;;5099127;28;19919;-43
2022/03/22 05:33:33;;;;;;;;;;;2.20;99.90;;;;;;5106657;28;20363;-44
2022/03/22 05:35:58;;;;;;;;;;;2.30;99.90;;;;;;5093972;28;19912;-42
2022/03/22 05:38:27;;;;;;;;;;;2.30;99.90;;;;;;5085388;28;20002;-44
2022/03/22 05:40:53;;;;;;;;;;;2.30;99.90;;;;;;5108154;28;19969;-44
2022/03/22 05:43:18;;;;;;;;;;;2.50;99.90;;;;;;5098358;28;20390;-45
2022/03/22 05:45:46;;;;;;;;;;;2.60;99.90;;;;;;5083765;28;19912;-45
2022/03/22 05:48:12;;;;;;;;;;;2.60;99.90;;;;;;5086215;28;19923;-48
2022/03/22 05:50:37;;;;;;;;;;;2.60;99.90;;;;;;5096405;28;20429;-41
2022/03/22 05:53:03;;;;;;;;;;;2.70;99.90;;;;;;5098985;28;19924;-41
2022/03/22 05:55:29;;;;;;;;;;;2.80;99.90;;;;;;5081855;28;19998;-48
2022/03/22 05:57:54;;;;;;;;;;;2.80;99.90;;;;;;5113627;28;19915;-42
2022/03/22 06:00:20;;;;;;;;;;;2.90;99.90;;;;;;5101690;28;19913;-42
2022/03/22 06:02:46;;;;;;;;;;;3.10;99.90;;;;;;5088108;28;19916;-42
2022/03/22 06:05:11;;;;;;;;;;;3.20;99.90;;;;;;5103176;28;19939;-44
2022/03/22 06:07:37;;;;;;;;;;;3.20;99.90;;;;;;5090214;28;19950;-47
2022/03/22 06:10:04;;;;;;;;;;;3.30;99.90;;;;;;5101375;28;20350;-44
2022/03/22 06:12:42;;;;;;;;;;;3.30;99.90;;;;;;5078955;28;19916;-45
2022/03/22 06:15:34;;;;;;;;;;;3.30;99.90;;;;;;5090083;28;19920;-46
2022/03/22 06:18:01;;;;;;;;;;;3.50;99.90;;;;;;5077616;28;19916;-45
2022/03/22 06:20:33;;;;;;;;;;;3.60;99.90;;;;;;5089997;28;19923;-45
2022/03/22 06:22:59;;;;;;;;;;;3.70;99.90;;;;;;5091001;28;19958;-43
2022/03/22 06:25:25;;;;;;;;;;;3.80;99.90;;;;;;5094925;28;20333;-42
2022/03/22 06:27:52;;;;;;;;;;;3.90;99.90;;;;;;5097163;28;19951;-43
2022/03/22 06:30:18;;;;;;;;;;;3.90;99.90;;;;;;5106534;28;19920;-43
2022/03/22 06:32:48;;;;;;;;;;;4.00;99.90;;;;;;5100478;28;19916;-43
2022/03/22 06:35:14;;;;;;;;;;;4.10;99.90;;;;;;5106635;28;20295;-43
2022/03/22 06:37:40;;;;;;;;;;;4.20;99.90;;;;;;5116806;28;19919;-44
2022/03/22 06:40:06;;;;;;;;;;;4.40;99.90;;;;;;5117099;28;20346;-41
2022/03/22 06:42:32;;;;;;;;;;;4.50;99.90;;;;;;5105666;28;19923;-43
2022/03/22 06:44:58;;;;;;;;;;;4.50;99.90;;;;;;5096045;28;19956;-43
2022/03/22 06:47:23;;;;;;;;;;;4.60;99.90;;;;;;5096263;28;19908;-43
2022/03/22 06:49:49;;;;;;;;;;;4.70;99.90;;;;;;5100419;28;19912;-44
2022/03/22 06:52:14;;;;;;;;;;;4.70;99.90;;;;;;5116550;28;19919;-43
2022/03/22 06:54:40;;;;;;;;;;;4.90;99.90;;;;;;5116443;28;19949;-44
2022/03/22 06:57:06;;;;;;;;;;;5.10;99.90;;;;;;5116718;28;19932;-42
2022/03/22 06:59:32;;;;;;;;;;;5.20;99.90;;;;;;5116269;28;19912;-43
2022/03/22 07:01:57;;;;;;;;;;;5.30;99.90;;;;;;5108206;28;19920;-44
2022/03/22 07:04:23;;;;;;;;;;;5.50;99.90;;;;;;5116121;28;19915;-43
2022/03/22 07:06:48;;;;;;;;;;;5.60;99.90;;;;;;5096339;28;19912;-44
2022/03/22 07:09:14;;;;;;;;;;;5.60;99.90;;;;;;5096186;28;19914;-46
2022/03/22 07:11:52;;;;;;;;;;;5.70;99.90;;;;;;5101257;28;19923;-42
2022/03/22 07:14:21;;;;;;;;;;;5.80;99.90;;;;;;5116750;28;19915;-44
2022/03/22 07:16:47;;;;;;;;;;;6.10;99.90;;;;;;5116022;28;19912;-45
2022/03/22 07:19:16;;;;;;;;;;;6.30;99.90;;;;;;5115645;28;20222;-43
2022/03/22 07:21:42;;;;;;;;;;;6.40;99.90;;;;;;5099321;28;20097;-43
2022/03/22 07:24:08;;;;;;;;;;;6.50;99.90;;;;;;5095137;28;19931;-43
2022/03/22 07:26:34;;;;;;;;;;;6.60;99.90;;;;;;5095241;28;19919;-44
2022/03/22 07:28:59;;;;;;;;;;;6.70;99.90;;;;;;5094934;28;19908;-45
2022/03/22 07:31:25;;;;;;;;;;;6.80;99.90;;;;;;5106600;28;19923;-44
2022/03/22 07:33:50;;;;;;;;;;;6.80;99.90;;;;;;5106004;28;20405;-45
2022/03/22 07:36:16;;;;;;;;;;;6.90;99.90;;;;;;5109346;28;19963;-43
2022/03/22 07:38:41;;;;;;;;;;;7.10;99.90;;;;;;5115666;28;19949;-45
2022/03/22 07:41:07;;;;;;;;;;;7.10;99.90;;;;;;5115626;28;19957;-44
2022/03/22 07:43:33;;;;;;;;;;;7.40;99.90;;;;;;5115210;28;19933;-46
2022/03/22 07:45:59;;;;;;;;;;;7.60;99.90;;;;;;5108615;28;19912;-43
2022/03/22 07:48:24;;;;;;;;;;;7.80;99.90;;;;;;5094755;28;19915;-42
2022/03/22 07:53:34;;;;;;;;;;;8.00;99.90;;;;;;5115164;28;20011;-44
2022/03/22 07:55:59;;;;;;;;;;;8.20;99.90;;;;;;5112302;28;20003;-45
2022/03/22 07:58:25;;;;;;;;;;;8.40;99.90;;;;;;5095244;28;20010;-45
2022/03/22 08:00:51;;;;;;;;;;;8.40;99.90;;;;;;5095038;28;19908;-43
2022/03/22 08:03:18;;;;;;;;;;;8.50;99.90;;;;;;5095022;28;19908;-43
2022/03/22 08:05:47;;;;;;;;;;;8.60;99.90;;;;;;5105103;28;19912;-43
2022/03/22 08:08:14;;;;;;;;;;;8.80;99.90;;;;;;5115291;28;19919;-46
2022/03/22 08:10:39;;;;;;;;;;;8.90;99.90;;;;;;5115258;28;19908;-44
2022/03/22 08:13:08;;;;;;;;;;;9.00;97.80;;;;;;5113888;28;19968;-44
2022/03/22 08:15:33;;;;;;;;;;;9.10;98.60;;;;;;5108380;28;19919;-42
2022/03/22 08:17:59;;;;;;;;;;;9.20;98.60;;;;;;5094790;28;20269;-43
2022/03/22 08:20:27;;;;;;;;;;;9.40;98.40;;;;;;5101958;28;19920;-44
2022/03/22 08:22:54;;;;;;;;;;;9.70;98.90;;;;;;5114844;28;20285;-42
2022/03/22 08:25:27;;;;;;;;;;;9.80;98.60;;;;;;5115236;28;19912;-44
2022/03/22 08:27:53;;;;;;;;;;;9.90;97.70;;;;;;5074051;28;19995;-44
2022/03/22 08:30:21;;;;;;;;;;;9.90;97.90;;;;;;5074261;28;19927;-43
2022/03/22 08:32:50;;;;;;;;;;;10.10;96.50;;;;;;5073951;28;19917;-44
2022/03/22 08:35:17;;;;;;;;;;;9.90;96.90;;;;;;5084237;28;19959;-45
2022/03/22 08:37:42;;;;;;;;;;;9.90;94.90;;;;;;5113415;28;19914;-44
2022/03/22 08:40:09;;;;;;;;;;;9.80;97.70;;;;;;5113963;28;19907;-42
2022/03/22 08:42:37;;;;;;;;;;;9.60;95.30;;;;;;5111412;28;19919;-43
2022/03/22 08:45:06;;;;;;;;;;;9.50;95.50;;;;;;5112909;28;20323;-43
2022/03/22 08:47:34;;;;;;;;;;;9.60;95.60;;;;;;5113960;28;19916;-45
2022/03/22 08:50:00;;;;;;;;;;;9.90;96.60;;;;;;5113006;28;20266;-43
2022/03/22 08:52:25;;;;;;;;;;;10.10;94.50;;;;;;5094162;28;19916;-44
2022/03/22 08:54:51;;;;;;;;;;;10.00;94.60;;;;;;5097083;28;19922;-46
2022/03/22 08:57:17;;;;;;;;;;;10.20;94.50;;;;;;5114690;28;20292;-42
2022/03/22 08:59:43;;;;;;;;;;;10.50;95.30;;;;;;5113943;28;19915;-43
2022/03/22 09:02:09;;;;;;;;;;;10.60;95.20;;;;;;5113997;28;19908;-43
2022/03/22 09:07:18;;;;;;;;;;;11.10;93.20;;;;;;5090591;28;20016;-45
2022/03/22 09:09:44;;;;;;;;;;;11.20;93.00;;;;;;5093773;28;19908;-44
2022/03/22 09:12:11;;;;;;;;;;;10.90;92.70;;;;;;5093643;28;19973;-44
2022/03/22 09:14:37;;;;;;;;;;;11.00;92.70;;;;;;5093788;28;19909;-42
2022/03/22 09:17:05;;;;;;;;;;;11.40;94.90;;;;;;5108080;28;20344;-45
2022/03/22 09:19:30;;;;;;;;;;;11.70;93.00;;;;;;5113903;28;19999;-48
2022/03/22 09:21:56;;;;;;;;;;;11.60;92.00;;;;;;5098304;28;19947;-44
2022/03/22 09:24:21;;;;;;;;;;;11.20;91.40;;;;;;5094088;28;20327;-43
2022/03/22 09:26:47;;;;;;;;;;;11.10;91.40;;;;;;5102874;28;19912;-44
2022/03/22 09:29:13;;;;;;;;;;;11.00;92.30;;;;;;5113687;28;20052;-44
2022/03/22 09:31:40;;;;;;;;;;;11.40;93.70;;;;;;5113603;28;19964;-45
2022/03/22 09:34:06;;;;;;;;;;;11.70;90.80;;;;;;5114227;28;19908;-45
2022/03/22 09:36:32;;;;;;;;;;;11.70;90.90;;;;;;5103521;28;19923;-43
2022/03/22 09:38:58;;;;;;;;;;;11.70;90.30;;;;;;5093473;28;20252;-46
2022/03/22 09:41:26;;;;;;;;;;;11.70;89.90;;;;;;5092299;28;19912;-43
2022/03/22 09:43:52;;;;;;;;;;;11.80;91.20;;;;;;5093597;28;19912;-44
2022/03/22 09:46:22;;;;;;;;;;;11.70;89.10;;;;;;5098272;28;19908;-44
2022/03/22 09:48:48;;;;;;;;;;;11.70;89.80;;;;;;5114176;28;19916;-43
2022/03/22 09:53:58;;;;;;;;;;;12.20;90.00;;;;;;5093521;28;19995;-46
2022/03/22 09:56:29;;;;;;;;;;;12.10;88.10;;;;;;5095717;28;19965;-44
2022/03/22 09:58:55;;;;;;;;;;;12.00;87.30;;;;;;5113692;28;19919;-46
2022/03/22 10:01:21;;;;;;;;;;;12.20;91.00;;;;;;5117287;28;19907;-44
2022/03/22 10:03:57;;;;;;;;;;;12.60;91.00;;;;;;5117897;28;19908;-44
2022/03/22 10:06:23;;;;;;;;;;;13.10;87.20;;;;;;5113073;28;19944;-47
2022/03/22 10:08:50;;;;;;;;;;;13.10;85.40;;;;;;5106031;28;19912;-46
2022/03/22 10:11:15;;;;;;;;;;;13.20;82.90;;;;;;5113910;28;19908;-45
2022/03/22 10:13:51;;;;;;;;;;;13.00;83.30;;;;;;5097379;28;19916;-44
2022/03/22 10:16:16;;;;;;;;;;;12.40;83.30;;;;;;5097664;28;20385;-45
2022/03/22 10:18:42;;;;;;;;;;;12.40;84.00;;;;;;5111090;28;19943;-43
2022/03/22 10:21:07;;;;;;;;;;;12.40;83.60;;;;;;5111188;28;19926;-45
2022/03/22 10:23:33;;;;;;;;;;;12.70;91.00;;;;;;5116724;28;19908;-43
2022/03/22 10:26:03;;;;;;;;;;;13.00;81.50;;;;;;5102246;28;19919;-42
2022/03/22 10:28:29;;;;;;;;;;;12.80;79.90;;;;;;5112286;28;19912;-46
2022/03/22 10:30:55;;;;;;;;;;;13.10;81.20;;;;;;5117524;28;19953;-46
2022/03/22 10:33:20;;;;;;;;;;;12.80;81.50;;;;;;5105674;28;20393;-46
2022/03/22 10:35:46;;;;;;;;;;;12.50;82.80;;;;;;5108644;28;19912;-44
2022/03/22 10:38:14;;;;;;;;;;;12.80;82.00;;;;;;5112453;28;20007;-44
2022/03/22 10:40:40;;;;;;;;;;;13.40;82.40;;;;;;5116390;28;19912;-46
2022/03/22 10:43:07;;;;;;;;;;;13.60;80.30;;;;;;5107966;28;19912;-46
2022/03/22 10:45:42;;;;;;;;;;;13.10;79.70;;;;;;5096233;28;19951;-44
2022/03/22 10:48:07;;;;;;;;;;;13.30;80.00;;;;;;5096470;28;19950;-45
2022/03/22 10:50:37;;;;;;;;;;;12.90;80.10;;;;;;5099101;28;20426;-44
2022/03/22 10:53:03;;;;;;;;;;;12.90;80.60;;;;;;5097310;28;19924;-48
2022/03/22 10:55:28;;;;;;;;;;;12.70;78.30;;;;;;5096048;28;20302;-42
2022/03/22 10:57:55;;;;;;;;;;;13.10;80.40;;;;;;5095953;28;19908;-47
2022/03/22 11:00:21;;;;;;;;;;;13.10;80.40;;;;;;5096183;28;20049;-45
2022/03/22 11:02:49;;;;;;;;;;;13.70;81.60;;;;;;5113529;28;19912;-47
2022/03/22 11:05:15;;;;;;;;;;;13.80;78.00;;;;;;5109314;28;19913;-47
2022/03/22 11:07:41;;;;;;;;;;;13.80;76.80;;;;;;5095796;28;20351;-45
2022/03/22 11:10:07;;;;;;;;;;;13.50;76.50;;;;;;5095732;28;19908;-43
2022/03/22 11:12:34;;;;;;;;;;;13.60;75.90;;;;;;5107008;28;19927;-45
2022/03/22 11:15:02;;;;;;;;;;;13.80;75.50;;;;;;5116182;28;19908;-47
2022/03/22 11:17:28;;;;;;;;;;;13.70;75.70;;;;;;5116419;28;19907;-46
2022/03/22 11:19:58;;;;;;;;;;;13.70;74.80;;;;;;5115555;28;19908;-44
2022/03/22 11:22:23;;;;;;;;;;;13.30;76.10;;;;;;5114470;28;19912;-44
2022/03/22 11:24:49;;;;;;;;;;;13.80;76.70;;;;;;5098452;28;19920;-43
2022/03/22 11:27:14;;;;;;;;;;;14.20;73.90;;;;;;5096029;28;19973;-43
2022/03/22 11:29:40;;;;;;;;;;;13.80;73.60;;;;;;5094055;28;20374;-45
2022/03/22 11:34:52;;;;;;;;;;;13.60;75.50;;;;;;5109547;28;20477;-42
2022/03/22 11:37:28;;;;;;;;;;;14.00;73.70;;;;;;5097294;28;20029;-43
2022/03/22 11:42:38;;;;;;;;;;;14.40;74.00;;;;;;5095362;28;19958;-44
2022/03/22 11:45:07;;;;;;;;;;;14.70;71.30;;;;;;5107899;28;19915;-45
2022/03/22 11:47:41;;;;;;;;;;;14.60;70.70;;;;;;5115821;28;19907;-44
2022/03/22 11:50:07;;;;;;;;;;;14.80;71.50;;;;;;5115943;28;19908;-45
2022/03/22 11:52:33;;;;;;;;;;;14.50;69.80;;;;;;5096880;28;19920;-48
2022/03/22 11:54:59;;;;;;;;;;;14.50;73.20;;;;;;5094889;28;20320;-44
2022/03/22 11:57:25;;;;;;;;;;;14.80;74.30;;;;;;5095420;28;19908;-48
2022/03/22 11:59:54;;;;;;;;;;;15.20;69.60;;;;;;5095053;28;19908;-46
2022/03/22 12:02:22;;;;;;;;;;;15.20;70.40;;;;;;5108992;28;19924;-43
2022/03/22 12:04:48;;;;;;;;;;;15.00;68.80;;;;;;5115129;28;19908;-46
2022/03/22 12:07:20;;;;;;;;;;;15.00;67.30;;;;;;5112778;28;20314;-47
2022/03/22 12:09:45;;;;;;;;;;;14.40;66.80;;;;;;5114492;28;20346;-45
2022/03/22 12:12:14;;;;;;;;;;;14.30;66.70;;;;;;5114649;28;19939;-47
2022/03/22 12:14:42;;;;;;;;;;;14.30;65.80;;;;;;5114851;28;20233;-48
2022/03/22 12:17:08;;;;;;;;;;;14.40;66.70;;;;;;5103739;28;19982;-45
2022/03/22 12:19:34;;;;;;;;;;;14.80;66.40;;;;;;5094321;28;19908;-44
2022/03/22 12:22:03;;;;;;;;;;;15.10;65.30;;;;;;5105535;28;19911;-44
2022/03/22 12:24:33;;;;;;;;;;;14.90;66.30;;;;;;5114754;28;19908;-44
2022/03/22 12:27:03;;;;;;;;;;;14.90;66.30;;;;;;5107826;28;19919;-43
2022/03/22 12:29:29;;;;;;;;;;;15.20;66.40;;;;;;5094111;28;19991;-47
2022/03/22 12:31:54;;;;;;;;;;;15.60;64.80;;;;;;5111852;28;20014;-44
2022/03/22 12:34:24;;;;;;;;;;;15.20;64.00;;;;;;5114318;28;19907;-47
2022/03/22 12:36:50;;;;;;;;;;;15.00;64.00;;;;;;5105829;28;19920;-45
2022/03/22 12:39:15;;;;;;;;;;;15.10;64.50;;;;;;5093980;28;19909;-45
2022/03/22 12:41:43;;;;;;;;;;;15.10;63.10;;;;;;5105247;28;19934;-47
2022/03/22 12:44:09;;;;;;;;;;;15.20;63.40;;;;;;5114333;28;19911;-46
2022/03/22 12:46:35;;;;;;;;;;;15.20;62.80;;;;;;5114118;28;19952;-44
2022/03/22 12:49:00;;;;;;;;;;;15.50;65.30;;;;;;5114060;28;20327;-45
2022/03/22 12:51:26;;;;;;;;;;;15.30;60.90;;;;;;5104913;28;19916;-46
2022/03/22 12:53:52;;;;;;;;;;;14.90;61.30;;;;;;5093699;28;19912;-43
2022/03/22 12:56:20;;;;;;;;;;;15.10;61.80;;;;;;5094232;28;19908;-45
2022/03/22 12:58:45;;;;;;;;;;;15.40;60.80;;;;;;5094272;28;19998;-48
2022/03/22 13:01:11;;;;;;;;;;;15.40;61.90;;;;;;5096197;28;20016;-44
2022/03/22 13:03:38;;;;;;;;;;;15.60;59.50;;;;;;5112960;28;19915;-44
2022/03/22 13:06:06;;;;;;;;;;;15.70;59.60;;;;;;5111590;28;19908;-44
2022/03/22 13:11:32;;;;;;;;;;;15.70;58.00;;;;;;5093621;28;20282;-46
2022/03/22 13:16:49;;;;;;;;;;;15.90;58.30;;;;;;5093272;28;19985;-45
2022/03/22 13:19:17;;;;;;;;;;;15.90;60.10;;;;;;5093347;28;20223;-48
2022/03/22 13:21:42;;;;;;;;;;;16.20;63.40;;;;;;5099066;28;19916;-46
2022/03/22 13:24:09;;;;;;;;;;;16.00;57.90;;;;;;5113937;28;19915;-44
2022/03/22 13:26:35;;;;;;;;;;;15.90;58.90;;;;;;5114107;28;19908;-46
2022/03/22 13:29:10;;;;;;;;;;;16.10;60.60;;;;;;5113976;28;19995;-46
2022/03/22 13:31:36;;;;;;;;;;;16.20;57.30;;;;;;5112146;28;19926;-45
2022/03/22 13:34:01;;;;;;;;;;;16.30;60.40;;;;;;5093223;28;20018;-44
2022/03/22 13:36:27;;;;;;;;;;;16.40;58.30;;;;;;5094234;28;19946;-43
2022/03/22 13:38:53;;;;;;;;;;;16.10;57.00;;;;;;5113705;28;20425;-47
2022/03/22 13:41:29;;;;;;;;;;;16.00;57.00;;;;;;5113932;28;19908;-45
2022/03/22 13:43:54;;;;;;;;;;;15.80;57.60;;;;;;5095970;28;19908;-43
2022/03/22 13:46:20;;;;;;;;;;;16.00;58.10;;;;;;5100394;28;20002;-48
2022/03/22 13:48:51;;;;;;;;;;;16.10;58.40;;;;;;5098730;28;19931;-46
2022/03/22 13:51:23;;;;;;;;;;;16.10;58.10;;;;;;5111404;28;19970;-43
2022/03/22 13:53:49;;;;;;;;;;;15.90;58.80;;;;;;5106683;28;20293;-47
2022/03/22 13:56:21;;;;;;;;;;;15.50;59.50;;;;;;5099873;28;19909;-45
2022/03/22 13:58:46;;;;;;;;;;;15.80;62.50;;;;;;5092494;28;19920;-44
2022/03/22 14:01:13;;;;;;;;;;;15.90;60.30;;;;;;5093965;28;19999;-44
2022/03/22 14:03:39;;;;;;;;;;;15.80;60.70;;;;;;5099362;28;20362;-46
2022/03/22 14:06:05;;;;;;;;;;;15.90;60.40;;;;;;5091802;28;19908;-47
2022/03/22 14:08:31;;;;;;;;;;;15.90;61.00;;;;;;5092440;28;19918;-44
2022/03/22 14:10:58;;;;;;;;;;;16.00;61.00;;;;;;5093880;28;19912;-45
2022/03/22 14:13:25;;;;;;;;;;;15.50;60.50;;;;;;5108837;28;20279;-47
2022/03/22 14:15:50;;;;;;;;;;;15.30;60.80;;;;;;5097707;28;19973;-45
2022/03/22 14:18:18;;;;;;;;;;;15.50;61.20;;;;;;5097893;28;19916;-44
2022/03/22 14:20:44;;;;;;;;;;;15.80;61.40;;;;;;5092635;28;19915;-43
2022/03/22 14:23:10;;;;;;;;;;;15.60;59.70;;;;;;5103127;28;20250;-44
2022/03/22 14:25:36;;;;;;;;;;;15.60;59.80;;;;;;5103621;28;19908;-49
2022/03/22 14:28:02;;;;;;;;;;;15.30;58.80;;;;;;5100944;28;20185;-43
2022/03/22 14:30:29;;;;;;;;;;;15.30;58.90;;;;;;5096429;28;19949;-43
2022/03/22 14:32:56;;;;;;;;;;;15.30;59.30;;;;;;5099226;28;19995;-44
2022/03/22 14:38:08;;;;;;;;;;;15.40;59.50;;;;;;5100300;28;19984;-45
2022/03/22 14:40:34;;;;;;;;;;;15.60;59.40;;;;;;5104996;28;20028;-47
2022/03/22 14:43:01;;;;;;;;;;;15.80;58.70;;;;;;5090376;28;20390;-47
2022/03/22 14:45:27;;;;;;;;;;;15.70;58.40;;;;;;5090952;28;20398;-46
2022/03/22 14:47:53;;;;;;;;;;;15.50;58.80;;;;;;5093834;28;19930;-44
2022/03/22 14:50:20;;;;;;;;;;;15.50;57.80;;;;;;5093758;28;19909;-43
2022/03/22 14:55:30;;;;;;;;;;;15.40;58.50;;;;;;5095221;28;19937;-45
2022/03/22 15:00:42;;;;;;;;;;;15.40;57.00;;;;;;5096557;28;20401;-47
2022/03/22 15:03:12;;;;;;;;;;;15.40;56.70;;;;;;5096201;28;19915;-44
2022/03/22 15:05:45;;;;;;;;;;;15.40;56.90;;;;;;5095331;28;20394;-45
2022/03/22 15:08:11;;;;;;;;;;;15.50;57.00;;;;;;5096068;28;20049;-43